createdAt,value
2022-12-18T00:04:32.903Z,16.10
2022-12-18T00:09:40.325Z,14.70
2022-12-18T00:19:46.900Z,15.90
2022-12-18T00:24:49.438Z,15.30
2022-12-18T00:29:51.309Z,16.80
2022-12-18T00:34:53.208Z,14.60
2022-12-18T00:39:55.043Z,16.60
2022-12-18T00:44:56.814Z,14.40
2022-12-18T00:49:58.724Z,14.30
2022-12-18T00:55:05.862Z,14.60
2022-12-18T01:00:11.945Z,17.70
2022-12-18T01:05:14.916Z,17.20
2022-12-18T01:10:16.797Z,16.30
2022-12-18T01:15:19.957Z,15.30
2022-12-18T01:20:21.854Z,15.10
2022-12-18T01:25:23.643Z,16.10
2022-12-18T01:30:26.470Z,18.40
2022-12-18T01:35:28.537Z,17.20
2022-12-18T01:40:30.334Z,13.30
2022-12-18T01:45:33.229Z,17.80
2022-12-18T01:50:39.549Z,17.10
2022-12-18T01:55:46.461Z,18.50
2022-12-18T02:00:48.463Z,15.00
2022-12-18T02:06:12.976Z,18.70
2022-12-18T02:11:19.877Z,16.60
2022-12-18T02:16:47.944Z,17.10
2022-12-18T02:22:03.456Z,18.90
2022-12-18T02:27:10.147Z,14.90
2022-12-18T02:32:18.669Z,20.00
2022-12-18T02:37:22.588Z,20.20
2022-12-18T02:42:25.451Z,17.20
2022-12-18T02:47:32.365Z,19.50
2022-12-18T02:52:56.205Z,17.70
2022-12-18T02:58:33.654Z,18.30
2022-12-18T03:03:48.634Z,20.60
2022-12-18T03:08:55.179Z,21.20
2022-12-18T03:14:00.399Z,17.90
2022-12-18T03:19:17.045Z,18.90
2022-12-18T03:24:21.349Z,16.20
2022-12-18T03:29:37.049Z,19.20
2022-12-18T03:34:43.781Z,21.40
2022-12-18T03:39:47.712Z,20.00
2022-12-18T03:45:11.195Z,23.30
2022-12-18T03:50:28.342Z,20.90
2022-12-18T03:55:35.656Z,22.70
2022-12-18T04:00:40.166Z,19.40
2022-12-18T04:05:45.082Z,20.90
2022-12-18T04:10:47.742Z,21.40
2022-12-18T04:15:49.715Z,23.20
2022-12-18T04:20:52.823Z,18.60
2022-12-18T04:25:55.234Z,21.90
2022-12-18T04:31:09.433Z,24.00
2022-12-18T04:36:13.372Z,22.50
2022-12-18T04:41:15.728Z,25.60
2022-12-18T04:46:18.756Z,24.20
2022-12-18T04:51:26.121Z,20.50
2022-12-18T04:56:28.552Z,23.40
2022-12-18T05:01:34.553Z,22.80
2022-12-18T05:06:37.128Z,23.80
2022-12-18T05:11:38.964Z,22.90
2022-12-18T05:16:40.910Z,21.30
2022-12-18T05:21:42.682Z,23.10
2022-12-18T05:26:44.610Z,28.60
2022-12-18T05:31:46.394Z,25.40
2022-12-18T05:36:48.195Z,21.60
2022-12-18T05:41:50.105Z,22.20
2022-12-18T05:46:52.038Z,21.60
2022-12-18T05:51:53.925Z,20.20
2022-12-18T05:56:55.851Z,23.00
2022-12-18T06:01:57.732Z,18.70
2022-12-18T06:06:59.663Z,19.20
2022-12-18T06:12:01.559Z,20.40
2022-12-18T06:17:03.398Z,18.40
2022-12-18T06:22:05.215Z,20.80
2022-12-18T06:27:07.055Z,21.00
2022-12-18T06:32:09.520Z,19.30
2022-12-18T06:37:11.417Z,20.60
2022-12-18T06:42:13.532Z,17.00
2022-12-18T06:47:15.505Z,21.20
2022-12-18T06:52:17.430Z,21.20
2022-12-18T06:57:19.244Z,25.00
2022-12-18T07:02:21.172Z,23.70
2022-12-18T07:07:23.263Z,24.70
2022-12-18T07:12:25.159Z,20.80
2022-12-18T07:17:27.377Z,20.20
2022-12-18T07:22:29.159Z,21.30
2022-12-18T07:27:30.980Z,20.40
2022-12-18T07:32:32.952Z,21.60
2022-12-18T07:37:34.852Z,24.80
2022-12-18T07:42:37.943Z,26.50
2022-12-18T07:47:42.207Z,25.40
2022-12-18T07:52:43.959Z,25.50
2022-12-18T07:57:51.278Z,22.10
2022-12-18T08:02:54.643Z,24.40
2022-12-18T08:07:57.265Z,25.00
2022-12-18T08:13:04.667Z,26.50
2022-12-18T08:18:11.337Z,29.30
2022-12-18T08:23:15.833Z,27.80
2022-12-18T08:28:18.215Z,30.90
2022-12-18T08:33:20.123Z,26.80
2022-12-18T08:38:22.084Z,25.60
2022-12-18T08:43:42.939Z,23.90
2022-12-18T08:48:45.153Z,22.60
2022-12-18T08:53:47.343Z,23.50
2022-12-18T08:58:53.128Z,17.90
2022-12-18T09:03:55.003Z,18.60
2022-12-18T09:08:58.412Z,23.30
2022-12-18T09:14:01.888Z,17.50
2022-12-18T09:19:05.478Z,23.00
2022-12-18T09:24:08.514Z,22.00
2022-12-18T09:29:11.099Z,22.40
2022-12-18T09:34:13.300Z,19.00
2022-12-18T09:39:15.313Z,14.70
2022-12-18T09:44:44.462Z,19.80
2022-12-18T09:49:51.174Z,23.60
2022-12-18T09:55:00.300Z,22.00
2022-12-18T10:00:22.819Z,19.00
2022-12-18T10:05:44.820Z,20.70
2022-12-18T10:11:11.887Z,22.40
2022-12-18T10:16:42.943Z,19.50
2022-12-18T10:22:14.211Z,19.00
2022-12-18T10:27:22.992Z,22.00
2022-12-18T10:32:27.869Z,21.00
2022-12-18T10:37:31.020Z,19.20
2022-12-18T10:42:32.819Z,16.40
2022-12-18T10:47:35.513Z,19.50
2022-12-18T10:52:40.807Z,18.90
2022-12-18T10:57:45.376Z,18.50
2022-12-18T11:02:47.451Z,16.90
2022-12-18T11:07:51.589Z,15.20
2022-12-18T11:12:53.404Z,18.50
2022-12-18T11:17:55.346Z,18.50
2022-12-18T11:23:06.613Z,18.30
2022-12-18T11:28:30.294Z,18.60
2022-12-18T11:33:32.149Z,18.60
2022-12-18T11:38:38.453Z,20.30
2022-12-18T11:43:55.256Z,18.90
2022-12-18T11:49:05.865Z,21.80
2022-12-18T11:54:14.828Z,22.00
2022-12-18T11:59:26.777Z,21.00
2022-12-18T12:04:41.556Z,20.50
2022-12-18T12:09:58.805Z,23.40
2022-12-18T12:15:38.972Z,22.90
2022-12-18T12:20:53.994Z,22.10
2022-12-18T12:26:13.505Z,23.80
2022-12-18T12:31:44.537Z,22.80
2022-12-18T12:37:21.873Z,29.80
2022-12-18T12:42:59.386Z,26.40
2022-12-18T12:48:04.929Z,26.20
2022-12-18T12:53:16.096Z,25.60
2022-12-18T12:58:34.944Z,26.60
2022-12-18T13:04:04.874Z,25.00
2022-12-18T13:09:07.045Z,25.60
2022-12-18T13:14:25.267Z,23.70
2022-12-18T13:19:27.676Z,27.20
2022-12-18T13:24:32.269Z,28.60
2022-12-18T13:29:46.866Z,29.00
2022-12-18T13:34:49.604Z,28.90
2022-12-18T13:39:51.350Z,27.40
2022-12-18T13:44:53.124Z,32.10
2022-12-18T13:49:58.206Z,31.70
2022-12-18T13:55:03.839Z,32.70
2022-12-18T14:00:24.250Z,32.70
2022-12-18T14:05:32.189Z,31.50
2022-12-18T14:10:48.005Z,33.90
2022-12-18T14:15:52.350Z,31.80
2022-12-18T14:21:00.206Z,32.30
2022-12-18T14:26:06.171Z,33.60
2022-12-18T14:31:19.311Z,32.60
2022-12-18T14:36:24.568Z,37.50
2022-12-18T14:41:27.347Z,37.30
2022-12-18T14:46:36.690Z,41.30
2022-12-18T14:51:38.484Z,39.20
2022-12-18T14:56:47.117Z,38.40
2022-12-18T15:02:02.848Z,40.70
2022-12-18T15:07:05.756Z,48.00
2022-12-18T15:12:25.828Z,43.50
2022-12-18T15:17:28.202Z,38.30
2022-12-18T15:22:38.948Z,39.80
2022-12-18T15:27:47.644Z,43.70
2022-12-18T15:32:50.666Z,43.20
2022-12-18T15:37:53.276Z,43.90
2022-12-18T15:43:14.859Z,44.30
2022-12-18T15:48:23.786Z,44.50
2022-12-18T15:53:30.487Z,45.20
2022-12-18T15:58:32.279Z,59.60
2022-12-18T16:03:34.147Z,41.60
2022-12-18T16:08:36.120Z,40.10
2022-12-18T16:13:38.223Z,40.00
2022-12-18T16:18:40.814Z,42.80
2022-12-18T16:23:42.883Z,42.40
2022-12-18T16:28:48.372Z,43.70
2022-12-18T16:33:50.478Z,43.60
2022-12-18T16:38:52.272Z,51.00
2022-12-18T16:43:55.103Z,49.70
2022-12-18T16:49:00.900Z,51.00
2022-12-18T16:54:07.985Z,48.40
2022-12-18T16:59:13.352Z,50.60
2022-12-18T17:04:17.062Z,51.20
2022-12-18T17:09:26.141Z,48.90
2022-12-18T17:14:27.947Z,45.10
2022-12-18T17:19:29.898Z,48.60
2022-12-18T17:24:35.015Z,45.00
2022-12-18T17:29:41.149Z,48.80
2022-12-18T17:34:47.166Z,54.00
2022-12-18T17:39:49.014Z,53.90
2022-12-18T17:44:50.863Z,59.70
2022-12-18T17:49:52.640Z,58.60
2022-12-18T17:54:55.353Z,52.50
2022-12-18T17:59:57.189Z,38.70
2022-12-18T18:04:58.951Z,46.40
2022-12-18T18:10:00.730Z,39.10
2022-12-18T18:15:02.630Z,36.50
2022-12-18T18:20:06.192Z,33.30
2022-12-18T18:25:09.413Z,39.00
2022-12-18T18:30:12.714Z,35.70
2022-12-18T18:35:37.542Z,33.90
2022-12-18T18:40:36.239Z,26.80
2022-12-18T18:45:38.314Z,33.20
2022-12-18T18:50:44.006Z,28.10
2022-12-18T18:55:49.135Z,30.30
2022-12-18T19:01:05.518Z,32.20
2022-12-18T19:06:09.442Z,27.10
2022-12-18T19:11:36.108Z,27.20
2022-12-18T19:16:39.465Z,30.90
2022-12-18T19:21:41.627Z,27.30
2022-12-18T19:26:43.814Z,27.70
2022-12-18T19:31:45.791Z,28.00
2022-12-18T19:36:48.633Z,28.60
2022-12-18T19:41:51.896Z,26.20
2022-12-18T19:46:53.789Z,19.60
2022-12-18T19:51:55.653Z,27.60
2022-12-18T19:56:57.459Z,30.30
2022-12-18T20:01:59.377Z,30.50
2022-12-18T20:07:01.727Z,31.00
2022-12-18T20:12:04.264Z,25.50
2022-12-18T20:17:06.160Z,30.50
2022-12-18T20:22:08.476Z,29.60
2022-12-18T20:27:15.200Z,24.70
2022-12-18T20:32:19.215Z,24.00
2022-12-18T20:37:21.151Z,24.20
2022-12-18T20:42:23.144Z,22.10
2022-12-18T20:47:26.339Z,23.20
2022-12-18T20:52:28.567Z,21.50
2022-12-18T20:57:30.346Z,22.60
2022-12-18T21:02:32.489Z,21.60
2022-12-18T21:07:34.424Z,15.10
2022-12-18T21:13:00.244Z,20.50
2022-12-18T21:18:01.003Z,18.10
2022-12-18T21:23:13.210Z,19.00
2022-12-18T21:28:17.937Z,18.40
2022-12-18T21:33:19.735Z,19.70
2022-12-18T21:38:21.584Z,18.60
2022-12-18T21:43:42.057Z,13.30
2022-12-18T21:48:44.163Z,18.30
2022-12-18T21:53:45.877Z,17.40
2022-12-18T21:58:57.097Z,17.80
2022-12-18T22:03:59.448Z,16.80
2022-12-18T22:09:01.246Z,16.30
2022-12-18T22:14:06.575Z,14.80
2022-12-18T22:19:11.446Z,16.40
2022-12-18T22:24:16.462Z,20.80
2022-12-18T22:29:41.928Z,16.50
2022-12-18T22:34:43.821Z,16.40
2022-12-18T22:39:45.760Z,19.30
2022-12-18T22:44:48.027Z,19.10
2022-12-18T22:49:49.819Z,18.50
2022-12-18T22:54:53.750Z,16.30
2022-12-18T22:59:55.925Z,22.10
2022-12-18T23:04:57.718Z,21.40
2022-12-18T23:10:01.199Z,21.50
2022-12-18T23:15:05.107Z,23.40
2022-12-18T23:20:07.236Z,23.50
2022-12-18T23:25:09.527Z,17.60
2022-12-18T23:30:12.192Z,25.30
2022-12-18T23:35:15.787Z,27.00
2022-12-18T23:40:18.153Z,25.90
2022-12-18T23:45:20.204Z,27.20
2022-12-18T23:50:26.728Z,20.00
2022-12-18T23:55:31.771Z,21.10
